Time;durP1;ratioP1;P1;durP2;ratioP2;P2;SDS_P1;SDS_P2;PMS_P1;PMS_P2;Temp;Humidity;BMP_temperature;BMP_pressure;BME280_temperature;BME280_humidity;BME280_pressure;Samples;Min_cycle;Max_cycle;Signal;HPM_P1;HPM_P2
2023/08/20 00:02:19;;;;;;;8.98;2.33;;;;;;;;;;5069811;28;20082;-90
2023/08/20 00:04:46;;;;;;;10.60;2.42;;;;;;;;;;5058150;28;20100;-89
2023/08/20 00:07:15;;;;;;;4.65;2.20;;;;;;;;;;5090391;28;20012;-89
2023/08/20 00:09:41;;;;;;;6.82;2.47;;;;;;;;;;5078273;28;20050;-89
2023/08/20 00:12:06;;;;;;;10.77;2.78;;;;;;;;;;5072066;28;20162;-89
2023/08/20 00:14:50;;;;;;;8.45;2.70;;;;;;;;;;5070125;28;20378;-89
2023/08/20 00:17:15;;;;;;;8.82;2.50;;;;;;;;;;5072612;28;20024;-90
2023/08/20 00:19:41;;;;;;;6.07;2.40;;;;;;;;;;5070133;28;20127;-89
2023/08/20 00:22:06;;;;;;;4.97;2.38;;;;;;;;;;5063556;28;20038;-89
2023/08/20 00:24:31;;;;;;;5.63;2.67;;;;;;;;;;5078288;28;20049;-90
2023/08/20 00:27:00;;;;;;;8.13;2.90;;;;;;;;;;5045909;28;20131;-90
2023/08/20 00:29:27;;;;;;;3.80;2.15;;;;;;;;;;5076415;28;20422;-89
2023/08/20 00:31:53;;;;;;;11.15;2.88;;;;;;;;;;5058044;28;20032;-89
2023/08/20 00:34:25;;;;;;;6.03;2.70;;;;;;;;;;5078038;28;20353;-90
2023/08/20 00:36:51;;;;;;;8.55;2.65;;;;;;;;;;5065257;28;20111;-90
2023/08/20 00:39:16;;;;;;;7.50;3.45;;;;;;;;;;5058232;28;20048;-89
2023/08/20 00:41:42;;;;;;;8.55;2.88;;;;;;;;;;5057072;28;20079;-88
2023/08/20 00:44:07;;;;;;;9.55;2.90;;;;;;;;;;5061256;28;20498;-89
2023/08/20 00:46:32;;;;;;;8.40;2.72;;;;;;;;;;5069776;28;20021;-89
2023/08/20 00:48:58;;;;;;;6.07;2.63;;;;;;;;;;5072496;28;20039;-89
2023/08/20 00:51:23;;;;;;;8.05;2.60;;;;;;;;;;5058037;28;20059;-89
2023/08/20 00:53:49;;;;;;;9.45;3.08;;;;;;;;;;5076405;28;20534;-89
2023/08/20 00:56:15;;;;;;;8.02;3.00;;;;;;;;;;5075605;28;20132;-89
2023/08/20 00:58:40;;;;;;;9.05;3.22;;;;;;;;;;5069694;28;20111;-90
2023/08/20 01:01:06;;;;;;;8.40;2.47;;;;;;;;;;5075883;28;20043;-89
2023/08/20 01:03:31;;;;;;;8.05;3.00;;;;;;;;;;5058047;28;20115;-89
2023/08/20 01:06:01;;;;;;;7.63;2.70;;;;;;;;;;5058037;28;20042;-90
2023/08/20 01:08:38;;;;;;;5.03;2.58;;;;;;;;;;5074081;28;20013;-89
2023/08/20 01:11:26;;;;;;;7.85;2.80;;;;;;;;;;5085738;28;20024;-89
2023/08/20 01:13:54;;;;;;;5.05;2.83;;;;;;;;;;5065452;28;20649;-89
2023/08/20 01:16:28;;;;;;;9.25;2.92;;;;;;;;;;5064530;28;20025;-89
2023/08/20 01:18:54;;;;;;;8.38;2.92;;;;;;;;;;5057035;28;20395;-90
2023/08/20 01:21:34;;;;;;;7.15;3.22;;;;;;;;;;5056396;28;20112;-90
2023/08/20 01:24:05;;;;;;;9.75;2.97;;;;;;;;;;5062065;28;20407;-89
2023/08/20 01:26:40;;;;;;;9.27;3.00;;;;;;;;;;5082893;28;20025;-89
2023/08/20 01:29:06;;;;;;;7.05;2.58;;;;;;;;;;5056888;28;20325;-90
2023/08/20 01:31:36;;;;;;;6.10;2.83;;;;;;;;;;5079534;28;20017;-90
2023/08/20 01:34:02;;;;;;;8.27;3.00;;;;;;;;;;5057289;28;20028;-89
2023/08/20 01:36:27;;;;;;;8.18;3.30;;;;;;;;;;5085420;28;20095;-90
2023/08/20 01:38:52;;;;;;;10.30;3.50;;;;;;;;;;5079047;28;20090;-89
2023/08/20 01:41:17;;;;;;;6.18;2.67;;;;;;;;;;5055104;28;20124;-89
2023/08/20 01:43:43;;;;;;;8.43;3.30;;;;;;;;;;5056479;28;20020;-89
2023/08/20 01:46:09;;;;;;;7.10;2.90;;;;;;;;;;5068329;28;20043;-89
2023/08/20 01:48:37;;;;;;;9.95;3.35;;;;;;;;;;5076586;28;20039;-89
2023/08/20 01:51:02;;;;;;;4.88;2.90;;;;;;;;;;5073976;28;20077;-89
2023/08/20 01:53:27;;;;;;;6.50;2.92;;;;;;;;;;5075096;28;20024;-89
2023/08/20 01:55:53;;;;;;;5.40;2.80;;;;;;;;;;5070486;28;20041;-90
2023/08/20 01:58:18;;;;;;;5.15;2.88;;;;;;;;;;5062596;28;20104;-89
2023/08/20 02:00:44;;;;;;;9.45;3.67;;;;;;;;;;5076906;28;20127;-89
2023/08/20 02:03:10;;;;;;;14.75;3.85;;;;;;;;;;5058067;28;20021;-90
2023/08/20 02:05:35;;;;;;;6.55;3.10;;;;;;;;;;5075069;28;20016;-89
2023/08/20 02:08:00;;;;;;;9.65;3.00;;;;;;;;;;5070307;28;20062;-89
2023/08/20 02:10:26;;;;;;;7.80;3.03;;;;;;;;;;5046451;28;20016;-89
2023/08/20 02:12:51;;;;;;;9.40;2.75;;;;;;;;;;5069155;28;20032;-89
2023/08/20 02:15:16;;;;;;;9.80;3.40;;;;;;;;;;5057100;28;20035;-88
2023/08/20 02:17:42;;;;;;;5.28;3.35;;;;;;;;;;5057419;28;20056;-89
2023/08/20 02:20:09;;;;;;;6.97;2.75;;;;;;;;;;5070095;28;20104;-89
2023/08/20 02:22:35;;;;;;;13.48;2.70;;;;;;;;;;5056740;28;20501;-90
2023/08/20 02:25:00;;;;;;;5.25;2.70;;;;;;;;;;5056764;28;20016;-90
2023/08/20 02:27:26;;;;;;;11.18;2.90;;;;;;;;;;5057207;28;20024;-89
2023/08/20 02:29:51;;;;;;;3.95;2.15;;;;;;;;;;5056434;28;20012;-90
2023/08/20 02:32:16;;;;;;;6.03;2.33;;;;;;;;;;5055253;28;20032;-89
2023/08/20 02:34:48;;;;;;;7.65;2.85;;;;;;;;;;5057145;28;20027;-89
2023/08/20 02:37:13;;;;;;;4.03;2.65;;;;;;;;;;5055796;28;20027;-89
2023/08/20 02:39:39;;;;;;;7.00;2.88;;;;;;;;;;5073194;28;20020;-89
2023/08/20 02:42:04;;;;;;;4.68;2.47;;;;;;;;;;5053976;28;20082;-89
2023/08/20 02:44:29;;;;;;;8.93;2.75;;;;;;;;;;5055323;28;20012;-89
2023/08/20 02:46:55;;;;;;;6.57;2.60;;;;;;;;;;5055471;28;20099;-89
2023/08/20 02:49:20;;;;;;;4.53;2.72;;;;;;;;;;5088235;28;20077;-89
2023/08/20 02:51:45;;;;;;;6.25;2.40;;;;;;;;;;5059163;28;20020;-90
2023/08/20 02:54:11;;;;;;;5.85;2.30;;;;;;;;;;5073980;28;20023;-89
2023/08/20 02:56:36;;;;;;;5.47;2.35;;;;;;;;;;5055026;28;20021;-89
2023/08/20 02:59:01;;;;;;;7.05;2.50;;;;;;;;;;5055177;28;20378;-89
2023/08/20 03:01:27;;;;;;;8.93;2.42;;;;;;;;;;5054846;28;20103;-89
2023/08/20 03:03:52;;;;;;;6.82;2.53;;;;;;;;;;5073570;28;20031;-89
2023/08/20 03:06:17;;;;;;;5.15;2.58;;;;;;;;;;5055890;28;20021;-89
2023/08/20 03:08:43;;;;;;;6.25;3.10;;;;;;;;;;5073733;28;20175;-89
2023/08/20 03:11:08;;;;;;;4.70;2.40;;;;;;;;;;5054563;28;20020;-89
2023/08/20 03:13:33;;;;;;;6.53;2.20;;;;;;;;;;5055445;28;20016;-89
2023/08/20 03:15:59;;;;;;;5.43;2.67;;;;;;;;;;5069194;28;20137;-89
2023/08/20 03:18:24;;;;;;;11.27;2.45;;;;;;;;;;5072480;28;20077;-90
2023/08/20 03:20:49;;;;;;;6.97;2.60;;;;;;;;;;5054262;28;20063;-89
2023/08/20 03:23:15;;;;;;;10.20;2.40;;;;;;;;;;5058280;28;20444;-89
2023/08/20 03:25:40;;;;;;;7.72;2.20;;;;;;;;;;5059128;28;20031;-89
2023/08/20 03:28:08;;;;;;;7.65;2.95;;;;;;;;;;5058102;28;20119;-90
2023/08/20 03:30:33;;;;;;;5.40;2.63;;;;;;;;;;5059102;28;20134;-90
2023/08/20 03:32:59;;;;;;;5.38;2.28;;;;;;;;;;5076316;28;20020;-89
2023/08/20 03:35:24;;;;;;;6.50;2.38;;;;;;;;;;5063703;28;20106;-89
2023/08/20 03:37:49;;;;;;;7.13;2.53;;;;;;;;;;5064460;28;20023;-89
2023/08/20 03:40:15;;;;;;;5.13;2.03;;;;;;;;;;5059507;28;20020;-89
2023/08/20 03:42:43;;;;;;;6.03;2.05;;;;;;;;;;5077924;28;20039;-89
2023/08/20 03:45:09;;;;;;;5.13;2.40;;;;;;;;;;5060238;28;20025;-90
2023/08/20 03:47:37;;;;;;;3.90;2.28;;;;;;;;;;5060670;28;20016;-90
2023/08/20 03:50:03;;;;;;;5.57;1.90;;;;;;;;;;5078746;28;20102;-90
2023/08/20 03:52:29;;;;;;;5.40;1.80;;;;;;;;;;5078293;28;20043;-89
2023/08/20 03:54:54;;;;;;;3.28;2.05;;;;;;;;;;5061429;28;20459;-89
2023/08/20 03:57:22;;;;;;;3.50;1.70;;;;;;;;;;5079427;28;20321;-89
2023/08/20 03:59:47;;;;;;;2.30;1.70;;;;;;;;;;5059913;28;20147;-89
2023/08/20 04:02:16;;;;;;;10.10;1.65;;;;;;;;;;5058262;28;20380;-89
2023/08/20 04:04:44;;;;;;;6.05;2.40;;;;;;;;;;5074559;28;20027;-89
2023/08/20 04:07:09;;;;;;;3.55;1.88;;;;;;;;;;5059796;28;20017;-89
2023/08/20 04:09:36;;;;;;;5.35;2.25;;;;;;;;;;5059491;28;20456;-89
2023/08/20 04:12:01;;;;;;;4.85;1.83;;;;;;;;;;5076975;28;20119;-89
2023/08/20 04:14:27;;;;;;;8.40;2.20;;;;;;;;;;5070306;28;20053;-89
2023/08/20 04:16:52;;;;;;;6.72;1.92;;;;;;;;;;5059655;28;20440;-89
2023/08/20 04:19:17;;;;;;;3.78;1.48;;;;;;;;;;5072577;28;20102;-89
2023/08/20 04:21:43;;;;;;;4.43;2.33;;;;;;;;;;5058785;28;20016;-89
2023/08/20 04:24:08;;;;;;;5.10;2.00;;;;;;;;;;5057714;28;20024;-89
2023/08/20 04:26:33;;;;;;;3.53;1.55;;;;;;;;;;5057915;28;20115;-89
2023/08/20 04:29:03;;;;;;;7.47;2.40;;;;;;;;;;5058382;28;20020;-89
2023/08/20 04:31:29;;;;;;;6.82;2.03;;;;;;;;;;5057870;28;20043;-91
2023/08/20 04:33:55;;;;;;;6.03;1.80;;;;;;;;;;5056456;28;20116;-89
2023/08/20 04:36:22;;;;;;;6.97;2.42;;;;;;;;;;5057618;28;20029;-89
2023/08/20 04:38:48;;;;;;;6.57;2.15;;;;;;;;;;5076025;28;20032;-89
2023/08/20 04:41:13;;;;;;;7.75;2.20;;;;;;;;;;5057555;28;20097;-89
2023/08/20 04:43:38;;;;;;;6.93;1.95;;;;;;;;;;5058087;28;20036;-88
2023/08/20 04:46:03;;;;;;;5.97;2.33;;;;;;;;;;5057524;28;20012;-89
2023/08/20 04:48:29;;;;;;;13.10;1.73;;;;;;;;;;5057569;28;20128;-88
2023/08/20 04:50:56;;;;;;;8.75;2.42;;;;;;;;;;5046053;28;20108;-90
2023/08/20 04:53:22;;;;;;;4.22;2.53;;;;;;;;;;5063188;28;20368;-89
2023/08/20 04:55:47;;;;;;;5.60;2.60;;;;;;;;;;5059077;28;20028;-89
2023/08/20 04:58:12;;;;;;;6.65;3.00;;;;;;;;;;5076538;28;20460;-89
2023/08/20 05:00:38;;;;;;;3.35;2.10;;;;;;;;;;5057362;28;20087;-88
2023/08/20 05:03:06;;;;;;;7.10;2.05;;;;;;;;;;5057561;28;20029;-88
2023/08/20 05:05:34;;;;;;;2.80;1.90;;;;;;;;;;5058045;28;20079;-89
2023/08/20 05:08:03;;;;;;;3.63;2.15;;;;;;;;;;5056203;28;20021;-89
2023/08/20 05:10:28;;;;;;;5.30;2.20;;;;;;;;;;5056779;28;20024;-89
2023/08/20 05:12:56;;;;;;;7.78;2.30;;;;;;;;;;5076432;28;20491;-89
2023/08/20 05:15:22;;;;;;;4.40;2.50;;;;;;;;;;5057787;28;20058;-89
2023/08/20 05:17:47;;;;;;;4.85;2.53;;;;;;;;;;5057511;28;20020;-89
2023/08/20 05:20:13;;;;;;;5.05;2.63;;;;;;;;;;5058622;28;20150;-89
2023/08/20 05:22:38;;;;;;;4.55;2.45;;;;;;;;;;5060399;28;20021;-89
2023/08/20 05:25:04;;;;;;;5.38;2.72;;;;;;;;;;5061453;28;20024;-89
2023/08/20 05:27:29;;;;;;;11.07;3.08;;;;;;;;;;5059916;28;20008;-89
2023/08/20 05:29:54;;;;;;;4.82;1.92;;;;;;;;;;5056547;28;20016;-88
2023/08/20 05:32:20;;;;;;;5.68;2.30;;;;;;;;;;5075723;28;20559;-89
2023/08/20 05:34:45;;;;;;;3.67;2.28;;;;;;;;;;5076808;28;20016;-89
2023/08/20 05:37:11;;;;;;;3.38;2.47;;;;;;;;;;5058046;28;20020;-89
2023/08/20 05:39:37;;;;;;;4.10;2.60;;;;;;;;;;5057629;28;20120;-89
2023/08/20 05:42:05;;;;;;;6.38;2.78;;;;;;;;;;5056992;28;20021;-89
2023/08/20 05:44:31;;;;;;;5.22;2.55;;;;;;;;;;5073975;28;20391;-89
2023/08/20 05:46:56;;;;;;;7.25;2.80;;;;;;;;;;5055704;28;20028;-89
2023/08/20 05:49:22;;;;;;;8.07;3.40;;;;;;;;;;5051630;28;20098;-89
2023/08/20 05:51:47;;;;;;;4.72;2.92;;;;;;;;;;5054284;28;20021;-89
2023/08/20 05:54:12;;;;;;;6.18;2.78;;;;;;;;;;5056285;28;20052;-88
2023/08/20 05:56:40;;;;;;;10.02;3.83;;;;;;;;;;5055514;28;20040;-88
2023/08/20 05:59:05;;;;;;;10.98;3.60;;;;;;;;;;5054269;28;20134;-88
2023/08/20 06:01:31;;;;;;;8.23;3.40;;;;;;;;;;5066323;28;20487;-88
2023/08/20 06:03:56;;;;;;;6.97;3.63;;;;;;;;;;5055492;28;20025;-88
2023/08/20 06:06:22;;;;;;;9.25;3.80;;;;;;;;;;5071318;28;20021;-89
2023/08/20 06:08:50;;;;;;;9.65;3.90;;;;;;;;;;5055677;28;20051;-89
2023/08/20 06:11:15;;;;;;;8.13;3.80;;;;;;;;;;5054068;28;20348;-89
2023/08/20 06:13:43;;;;;;;7.80;3.90;;;;;;;;;;5055998;28;20028;-88
2023/08/20 06:16:11;;;;;;;8.43;3.35;;;;;;;;;;5055428;28;20016;-89
2023/08/20 06:18:36;;;;;;;12.38;4.25;;;;;;;;;;5054769;28;20388;-89
2023/08/20 06:21:02;;;;;;;12.65;4.20;;;;;;;;;;5054698;28;20016;-89
2023/08/20 06:23:27;;;;;;;11.07;4.30;;;;;;;;;;5069666;28;20020;-90
2023/08/20 06:25:55;;;;;;;6.93;4.28;;;;;;;;;;5056409;28;20415;-90
2023/08/20 06:28:21;;;;;;;6.75;3.95;;;;;;;;;;5074158;28;20021;-89
2023/08/20 06:30:46;;;;;;;12.85;4.15;;;;;;;;;;5054389;28;20042;-89
2023/08/20 06:33:11;;;;;;;16.50;4.35;;;;;;;;;;5055808;28;20024;-90
2023/08/20 06:35:37;;;;;;;14.13;4.10;;;;;;;;;;5057471;28;20025;-87
2023/08/20 06:38:03;;;;;;;6.65;3.83;;;;;;;;;;5057661;28;20073;-88
2023/08/20 06:40:28;;;;;;;9.75;3.45;;;;;;;;;;5056360;28;20020;-88
2023/08/20 06:42:53;;;;;;;8.57;3.45;;;;;;;;;;5056937;28;20020;-87
2023/08/20 06:45:22;;;;;;;9.50;3.53;;;;;;;;;;5053964;28;20016;-87
2023/08/20 06:47:48;;;;;;;7.85;3.33;;;;;;;;;;5068708;28;20040;-87
2023/08/20 06:50:13;;;;;;;3.50;2.20;;;;;;;;;;5057478;28;20107;-88
2023/08/20 06:52:42;;;;;;;13.70;3.28;;;;;;;;;;5057627;28;20120;-88
2023/08/20 06:55:08;;;;;;;9.07;3.13;;;;;;;;;;5058079;28;20020;-88
2023/08/20 06:57:33;;;;;;;13.65;3.05;;;;;;;;;;5071611;28;20027;-88
2023/08/20 06:59:58;;;;;;;10.10;3.08;;;;;;;;;;5054897;28;20056;-88
2023/08/20 07:02:24;;;;;;;12.80;3.17;;;;;;;;;;5058457;28;20021;-87
2023/08/20 07:04:52;;;;;;;10.82;3.17;;;;;;;;;;5073954;28;20013;-87
2023/08/20 07:07:17;;;;;;;9.32;3.05;;;;;;;;;;5073590;28;20379;-88
2023/08/20 07:09:43;;;;;;;8.60;2.75;;;;;;;;;;5052380;28;20195;-88
2023/08/20 07:12:08;;;;;;;5.95;2.35;;;;;;;;;;5052842;28;20494;-87
2023/08/20 07:14:33;;;;;;;9.60;2.53;;;;;;;;;;5052488;28;20024;-88
2023/08/20 07:16:59;;;;;;;4.95;2.10;;;;;;;;;;5068180;28;20021;-88
2023/08/20 07:19:25;;;;;;;6.78;2.33;;;;;;;;;;5052342;28;20536;-88
2023/08/20 07:21:50;;;;;;;6.60;1.83;;;;;;;;;;5061151;28;20012;-88
2023/08/20 07:24:15;;;;;;;7.78;2.00;;;;;;;;;;5068493;28;20020;-87
2023/08/20 07:26:41;;;;;;;6.05;1.70;;;;;;;;;;5054383;28;20538;-88
2023/08/20 07:29:06;;;;;;;10.02;1.80;;;;;;;;;;5051359;28;20044;-87
2023/08/20 07:31:32;;;;;;;6.05;1.55;;;;;;;;;;5052808;28;20040;-87
2023/08/20 07:34:08;;;;;;;;;;;;;;;;;;;;;
2023/08/20 07:36:33;;;;;;;7.38;2.17;;;;;;;;;;5070680;28;20022;-88
2023/08/20 07:38:59;;;;;;;6.72;1.70;;;;;;;;;;5054172;28;20555;-88
2023/08/20 07:41:24;;;;;;;10.23;1.40;;;;;;;;;;5067147;28;20026;-87
2023/08/20 07:43:50;;;;;;;6.65;1.25;;;;;;;;;;5072814;28;20032;-87
2023/08/20 07:46:15;;;;;;;5.30;1.27;;;;;;;;;;5071299;28;20016;-86
2023/08/20 07:48:41;;;;;;;4.20;1.17;;;;;;;;;;5053784;28;20071;-87
2023/08/20 07:51:06;;;;;;;4.97;1.23;;;;;;;;;;5054465;28;20116;-87
2023/08/20 07:53:32;;;;;;;4.53;1.25;;;;;;;;;;5067392;28;20063;-88
2023/08/20 07:55:58;;;;;;;5.20;1.35;;;;;;;;;;5055945;28;20025;-87
2023/08/20 07:58:23;;;;;;;8.88;1.70;;;;;;;;;;5071133;28;20024;-87
2023/08/20 08:00:49;;;;;;;4.03;1.10;;;;;;;;;;5058677;28;20017;-88
2023/08/20 08:03:14;;;;;;;4.13;1.17;;;;;;;;;;5054294;28;20088;-87
2023/08/20 08:05:40;;;;;;;6.18;1.33;;;;;;;;;;5064444;28;20050;-87
2023/08/20 08:08:05;;;;;;;3.53;1.05;;;;;;;;;;5055708;28;20039;-87
2023/08/20 08:10:31;;;;;;;5.88;1.13;;;;;;;;;;5075467;28;20044;-87
2023/08/20 08:12:56;;;;;;;3.00;1.00;;;;;;;;;;5060492;28;20016;-87
2023/08/20 08:15:22;;;;;;;3.75;1.00;;;;;;;;;;5064435;28;20107;-87
2023/08/20 08:17:47;;;;;;;3.20;1.00;;;;;;;;;;5076977;28;20020;-87
2023/08/20 08:20:12;;;;;;;2.13;0.88;;;;;;;;;;5058432;28;20063;-88
2023/08/20 08:22:38;;;;;;;2.25;0.80;;;;;;;;;;5059823;28;20173;-88
2023/08/20 08:25:03;;;;;;;6.10;1.05;;;;;;;;;;5059950;28;20047;-88
2023/08/20 08:27:29;;;;;;;6.88;1.10;;;;;;;;;;5059669;28;20024;-89
2023/08/20 08:29:54;;;;;;;1.67;0.93;;;;;;;;;;5063510;28;20024;-88
2023/08/20 08:32:19;;;;;;;4.78;1.60;;;;;;;;;;5068871;28;20107;-89
2023/08/20 08:34:45;;;;;;;9.65;1.60;;;;;;;;;;5060817;28;20031;-89
2023/08/20 08:37:10;;;;;;;4.57;1.08;;;;;;;;;;5089995;28;20012;-88
2023/08/20 08:39:38;;;;;;;8.63;1.10;;;;;;;;;;5073883;28;20020;-89
2023/08/20 08:42:04;;;;;;;3.72;1.30;;;;;;;;;;5062135;28;20016;-88
2023/08/20 08:44:33;;;;;;;8.30;1.50;;;;;;;;;;5091738;28;20484;-86
2023/08/20 08:46:59;;;;;;;3.58;1.10;;;;;;;;;;5094859;28;20429;-87
2023/08/20 08:49:25;;;;;;;4.40;1.50;;;;;;;;;;5059831;28;20172;-85
2023/08/20 08:51:51;;;;;;;6.75;1.83;;;;;;;;;;5059246;28;20024;-86
2023/08/20 08:54:16;;;;;;;8.02;2.08;;;;;;;;;;5056889;28;20625;-83
2023/08/20 08:56:42;;;;;;;8.73;2.25;;;;;;;;;;5075534;28;20017;-87
2023/08/20 08:59:07;;;;;;;4.45;1.40;;;;;;;;;;5077619;28;20019;-90
2023/08/20 09:01:32;;;;;;;1.90;1.30;;;;;;;;;;5059975;28;20153;-89
2023/08/20 09:03:58;;;;;;;4.60;1.48;;;;;;;;;;5055708;28;20475;-89
2023/08/20 09:06:23;;;;;;;4.60;1.70;;;;;;;;;;5068130;28;20027;-90
2023/08/20 09:08:48;;;;;;;5.60;1.52;;;;;;;;;;5078944;28;20020;-90
2023/08/20 09:11:14;;;;;;;6.65;1.85;;;;;;;;;;5060535;28;20044;-89
2023/08/20 09:13:44;;;;;;;4.85;2.08;;;;;;;;;;5071119;28;20027;-90
2023/08/20 09:16:10;;;;;;;7.20;2.00;;;;;;;;;;5071299;28;20038;-89
2023/08/20 09:18:40;;;;;;;6.10;1.98;;;;;;;;;;5065006;28;20531;-89
2023/08/20 09:21:09;;;;;;;8.48;1.85;;;;;;;;;;5056957;28;20085;-90
2023/08/20 09:23:34;;;;;;;5.75;1.70;;;;;;;;;;5056730;28;20112;-90
2023/08/20 09:26:01;;;;;;;7.63;2.10;;;;;;;;;;5073191;28;20052;-89
2023/08/20 09:28:27;;;;;;;3.42;1.65;;;;;;;;;;5057395;28;20368;-90
2023/08/20 09:30:56;;;;;;;4.28;1.95;;;;;;;;;;5054477;28;20024;-90
2023/08/20 09:33:21;;;;;;;11.43;1.95;;;;;;;;;;5053695;28;20457;-90
2023/08/20 09:35:50;;;;;;;2.55;1.20;;;;;;;;;;5048675;28;20036;-90
2023/08/20 09:38:18;;;;;;;6.53;1.55;;;;;;;;;;5073600;28;20020;-90
2023/08/20 09:40:44;;;;;;;6.60;1.48;;;;;;;;;;5073704;28;20020;-90
2023/08/20 09:43:12;;;;;;;4.32;1.40;;;;;;;;;;5069160;28;20031;-90
2023/08/20 09:45:37;;;;;;;3.70;1.17;;;;;;;;;;5062355;28;20017;-90
2023/08/20 09:48:05;;;;;;;6.68;1.30;;;;;;;;;;5068570;28;20017;-89
2023/08/20 09:50:36;;;;;;;5.03;1.27;;;;;;;;;;5056992;28;20075;-90
2023/08/20 09:53:06;;;;;;;3.00;1.27;;;;;;;;;;5056126;28;20036;-90
2023/08/20 09:55:34;;;;;;;3.03;1.40;;;;;;;;;;5063480;28;20257;-90
2023/08/20 09:58:01;;;;;;;2.33;1.20;;;;;;;;;;5087384;28;20016;-90
2023/08/20 10:00:27;;;;;;;4.78;1.50;;;;;;;;;;5068804;28;20024;-90
2023/08/20 10:02:54;;;;;;;4.43;1.40;;;;;;;;;;5068826;28;20092;-92
2023/08/20 10:05:23;;;;;;;1.85;1.30;;;;;;;;;;5069471;28;20348;-95
2023/08/20 10:07:49;;;;;;;5.50;1.00;;;;;;;;;;5056702;28;20056;-93
2023/08/20 10:10:16;;;;;;;4.72;0.88;;;;;;;;;;5056937;28;20020;-93
2023/08/20 10:12:43;;;;;;;7.93;1.17;;;;;;;;;;5058005;28;20032;-94
2023/08/20 10:15:10;;;;;;;6.03;1.20;;;;;;;;;;5058237;28;20032;-93
2023/08/20 10:17:36;;;;;;;6.35;1.13;;;;;;;;;;5081343;28;20024;-93
2023/08/20 10:20:06;;;;;;;2.95;0.90;;;;;;;;;;5056139;28;20039;-93
2023/08/20 10:22:33;;;;;;;2.55;0.90;;;;;;;;;;5071043;28;20080;-92
2023/08/20 10:25:00;;;;;;;4.93;1.70;;;;;;;;;;5070814;28;20017;-91
2023/08/20 10:27:29;;;;;;;3.30;1.02;;;;;;;;;;5060339;28;20345;-91
2023/08/20 10:29:55;;;;;;;1.77;0.90;;;;;;;;;;5056184;28;20088;-92
2023/08/20 10:32:40;;;;;;;6.78;1.23;;;;;;;;;;5072401;28;20105;-92
2023/08/20 10:35:06;;;;;;;2.40;1.00;;;;;;;;;;5058481;28;20118;-92
2023/08/20 10:37:32;;;;;;;1.90;0.68;;;;;;;;;;5055728;28;20021;-91
2023/08/20 10:39:58;;;;;;;6.43;0.68;;;;;;;;;;5089370;28;20009;-91
2023/08/20 10:42:27;;;;;;;1.98;0.68;;;;;;;;;;5066256;28;20055;-93
2023/08/20 10:44:59;;;;;;;4.22;0.70;;;;;;;;;;5058152;28;20027;-92
2023/08/20 10:47:27;;;;;;;2.72;1.13;;;;;;;;;;5082467;28;20324;-92
2023/08/20 10:49:53;;;;;;;2.83;0.50;;;;;;;;;;5059261;28;20422;-92
2023/08/20 10:52:22;;;;;;;3.38;0.75;;;;;;;;;;5076592;28;20012;-92
2023/08/20 10:54:50;;;;;;;3.63;0.60;;;;;;;;;;5069306;28;20094;-93
2023/08/20 10:57:15;;;;;;;8.05;0.80;;;;;;;;;;5078472;28;20024;-93
2023/08/20 10:59:40;;;;;;;2.33;0.70;;;;;;;;;;5055823;28;20036;-92
2023/08/20 11:02:10;;;;;;;2.47;0.98;;;;;;;;;;5055525;28;20016;-92
2023/08/20 11:04:39;;;;;;;2.80;0.80;;;;;;;;;;5055466;28;20032;-91
2023/08/20 11:07:04;;;;;;;5.35;1.05;;;;;;;;;;5059185;28;20084;-90
2023/08/20 11:09:30;;;;;;;1.75;0.57;;;;;;;;;;5065648;28;20105;-91
2023/08/20 11:11:56;;;;;;;3.65;0.70;;;;;;;;;;5072129;28;20024;-92
2023/08/20 11:14:23;;;;;;;2.05;0.80;;;;;;;;;;5078167;28;20411;-92
2023/08/20 11:16:48;;;;;;;4.72;0.80;;;;;;;;;;5067120;28;20112;-90
2023/08/20 11:19:14;;;;;;;1.67;0.60;;;;;;;;;;5055694;28;20070;-89
2023/08/20 11:21:41;;;;;;;2.33;0.70;;;;;;;;;;5066191;28;20024;-89
2023/08/20 11:24:07;;;;;;;4.60;1.10;;;;;;;;;;5058073;28;20036;-90
2023/08/20 11:26:34;;;;;;;1.38;0.68;;;;;;;;;;5059225;28;20468;-89
2023/08/20 11:29:00;;;;;;;1.13;0.55;;;;;;;;;;5066585;28;20384;-90
2023/08/20 11:31:25;;;;;;;2.40;0.88;;;;;;;;;;5052403;28;20021;-90
2023/08/20 11:33:51;;;;;;;2.10;0.77;;;;;;;;;;5075104;28;20444;-90
2023/08/20 11:36:19;;;;;;;6.75;0.70;;;;;;;;;;5052376;28;20028;-90
2023/08/20 11:38:54;;;;;;;3.33;0.70;;;;;;;;;;5055306;28;20082;-90
2023/08/20 11:41:20;;;;;;;5.07;0.70;;;;;;;;;;5055387;28;20021;-89
2023/08/20 11:43:46;;;;;;;2.00;0.60;;;;;;;;;;5066820;28;20027;-91
2023/08/20 11:46:15;;;;;;;1.70;0.50;;;;;;;;;;5053104;28;20045;-91
2023/08/20 11:49:00;;;;;;;3.55;0.60;;;;;;;;;;5062289;28;20020;-91
2023/08/20 11:51:25;;;;;;;3.35;0.60;;;;;;;;;;5061575;28;20020;-92
2023/08/20 11:53:51;;;;;;;3.67;0.60;;;;;;;;;;5058311;28;20514;-91
2023/08/20 11:56:16;;;;;;;2.60;0.63;;;;;;;;;;5056251;28;20020;-91
2023/08/20 11:58:41;;;;;;;2.50;0.63;;;;;;;;;;5061490;28;20025;-92
2023/08/20 12:01:10;;;;;;;2.65;0.80;;;;;;;;;;5060023;28;20035;-92
2023/08/20 12:03:37;;;;;;;5.70;0.77;;;;;;;;;;5059388;28;20411;-92
2023/08/20 12:06:23;;;;;;;3.78;0.68;;;;;;;;;;5059955;28;20417;-92
2023/08/20 12:08:48;;;;;;;2.58;0.57;;;;;;;;;;5060947;28;20032;-91
2023/08/20 12:11:14;;;;;;;3.60;0.68;;;;;;;;;;5060083;28;20021;-91
2023/08/20 12:13:39;;;;;;;3.58;0.60;;;;;;;;;;5059736;28;20017;-91
2023/08/20 12:16:04;;;;;;;4.35;0.70;;;;;;;;;;5058634;28;20511;-92
2023/08/20 12:18:32;;;;;;;2.33;0.70;;;;;;;;;;5055143;28;20028;-92
2023/08/20 12:20:57;;;;;;;1.30;0.65;;;;;;;;;;5058200;28;20035;-90
2023/08/20 12:23:23;;;;;;;5.10;1.00;;;;;;;;;;5056182;28;20013;-90
2023/08/20 12:25:52;;;;;;;2.75;0.90;;;;;;;;;;5054250;28;20125;-92
2023/08/20 12:28:17;;;;;;;3.92;0.82;;;;;;;;;;5059059;28;20031;-91
2023/08/20 12:30:43;;;;;;;4.03;0.90;;;;;;;;;;5073490;28;20040;-91
2023/08/20 12:33:08;;;;;;;3.15;0.70;;;;;;;;;;5058170;28;20024;-90
2023/08/20 12:35:34;;;;;;;4.75;1.15;;;;;;;;;;5056563;28;20021;-91
2023/08/20 12:38:03;;;;;;;5.43;1.17;;;;;;;;;;5057328;28;20059;-92
2023/08/20 12:40:29;;;;;;;2.72;0.77;;;;;;;;;;5077955;28;20042;-92
2023/08/20 12:42:54;;;;;;;3.50;0.95;;;;;;;;;;5081495;28;20100;-91
2023/08/20 12:45:20;;;;;;;3.40;0.88;;;;;;;;;;5055582;28;20107;-90
2023/08/20 12:47:45;;;;;;;3.60;0.93;;;;;;;;;;5078253;28;20036;-90
2023/08/20 12:50:13;;;;;;;1.35;0.63;;;;;;;;;;5059264;28;20025;-91
2023/08/20 12:52:40;;;;;;;1.42;0.60;;;;;;;;;;5090185;28;20137;-92
2023/08/20 12:55:06;;;;;;;1.58;0.73;;;;;;;;;;5057341;28;20028;-91
2023/08/20 12:57:34;;;;;;;1.65;0.77;;;;;;;;;;5074337;28;20511;-91
2023/08/20 13:00:07;;;;;;;1.92;0.85;;;;;;;;;;5058861;28;20107;-92
2023/08/20 13:02:32;;;;;;;6.20;1.10;;;;;;;;;;5056386;28;20715;-88
2023/08/20 13:04:58;;;;;;;3.55;0.93;;;;;;;;;;5055334;28;20100;-88
2023/08/20 13:07:23;;;;;;;6.00;1.30;;;;;;;;;;5075147;28;20083;-89
2023/08/20 13:09:49;;;;;;;4.80;0.88;;;;;;;;;;5054987;28;20017;-89
2023/08/20 13:12:16;;;;;;;2.75;0.73;;;;;;;;;;5057248;28;20464;-90
2023/08/20 13:14:42;;;;;;;6.68;0.95;;;;;;;;;;5074024;28;20392;-89
2023/08/20 13:17:09;;;;;;;2.28;1.02;;;;;;;;;;5056590;28;20484;-89
2023/08/20 13:19:35;;;;;;;3.13;1.10;;;;;;;;;;5073223;28;20030;-89
2023/08/20 13:22:00;;;;;;;3.83;1.38;;;;;;;;;;5057029;28;20096;-89
2023/08/20 13:24:26;;;;;;;3.38;0.95;;;;;;;;;;5055381;28;20043;-89
2023/08/20 13:26:52;;;;;;;4.30;0.95;;;;;;;;;;5056967;28;20039;-90
2023/08/20 13:29:18;;;;;;;2.13;1.00;;;;;;;;;;5055984;28;20352;-89
2023/08/20 13:31:43;;;;;;;5.38;1.05;;;;;;;;;;5055915;28;20387;-89
2023/08/20 13:34:09;;;;;;;2.53;0.80;;;;;;;;;;5055279;28;20083;-88
2023/08/20 13:36:34;;;;;;;4.50;1.33;;;;;;;;;;5055719;28;20103;-88
2023/08/20 13:38:59;;;;;;;3.70;1.00;;;;;;;;;;5055824;28;20028;-88
2023/08/20 13:41:24;;;;;;;3.28;0.80;;;;;;;;;;5052995;28;20049;-89
2023/08/20 13:43:50;;;;;;;4.53;0.80;;;;;;;;;;5056092;28;20028;-88
2023/08/20 13:46:15;;;;;;;2.55;0.88;;;;;;;;;;5053203;28;20020;-89
2023/08/20 13:48:40;;;;;;;5.57;1.00;;;;;;;;;;5066123;28;20031;-88
2023/08/20 13:51:06;;;;;;;3.05;0.80;;;;;;;;;;5061930;28;20085;-88
2023/08/20 13:53:31;;;;;;;4.03;0.95;;;;;;;;;;5059090;28;20043;-88
2023/08/20 13:55:56;;;;;;;3.00;1.05;;;;;;;;;;5064373;28;20036;-89
2023/08/20 13:58:22;;;;;;;5.07;1.00;;;;;;;;;;5056302;28;20471;-88
2023/08/20 14:00:47;;;;;;;6.15;0.82;;;;;;;;;;5073689;28;20434;-88
2023/08/20 14:03:14;;;;;;;2.42;1.00;;;;;;;;;;5059870;28;20430;-88
2023/08/20 14:05:40;;;;;;;6.82;0.98;;;;;;;;;;5055738;28;20475;-89
2023/08/20 14:08:05;;;;;;;2.55;0.77;;;;;;;;;;5074596;28;20025;-88
2023/08/20 14:10:31;;;;;;;3.72;0.88;;;;;;;;;;5060032;28;20020;-89
2023/08/20 14:12:56;;;;;;;5.20;1.17;;;;;;;;;;5054697;28;20365;-88
2023/08/20 14:15:25;;;;;;;2.05;0.85;;;;;;;;;;5060991;28;20148;-89
2023/08/20 14:17:50;;;;;;;2.33;1.13;;;;;;;;;;5054909;28;20387;-89
2023/08/20 14:20:15;;;;;;;5.57;0.82;;;;;;;;;;5072573;28;20038;-88
2023/08/20 14:22:41;;;;;;;3.30;0.80;;;;;;;;;;5063692;28;20151;-89
2023/08/20 14:25:06;;;;;;;2.53;0.77;;;;;;;;;;5080599;28;20021;-89
2023/08/20 14:27:32;;;;;;;2.50;0.90;;;;;;;;;;5055850;28;20493;-89
2023/08/20 14:29:57;;;;;;;2.22;0.90;;;;;;;;;;5066416;28;20056;-89
2023/08/20 14:32:25;;;;;;;4.07;0.95;;;;;;;;;;5047394;28;20016;-89
2023/08/20 14:34:50;;;;;;;3.38;0.80;;;;;;;;;;5079996;28;20017;-90
2023/08/20 14:37:15;;;;;;;6.57;0.90;;;;;;;;;;5064729;28;20074;-89
2023/08/20 14:39:41;;;;;;;6.05;0.90;;;;;;;;;;5059619;28;20036;-89